Wetterdaten: Woche 27.01.03 - 02.02.03 (KW5)
Datum Zeit Temperatur Luftfeuchte Luftdruck Regenmenge Wind Richtung Taupunkt Windchill
27.01.2003 00:00 0.7 C 94 % 1032.3 hPa 0.0 l/m 0.3 km/h (0 Bft) - - -0.1 C 0.7 C
27.01.2003 01:00 0.6 C 96 % 1032.0 hPa 0.3 l/m 0.3 km/h (0 Bft) S-SW -0.1 C 0.6 C
27.01.2003 02:00 0.3 C 97 % 1032.0 hPa 0.3 l/m 0.5 km/h (0 Bft) S-SO -0.2 C 0.3 C
27.01.2003 03:00 0.2 C 99 % 1032.0 hPa 0.3 l/m 1.4 km/h (1 Bft) SO 0.0 C 0.0 C
27.01.2003 04:00 0.2 C 99 % 1032.0 hPa 0.3 l/m 0.9 km/h (0 Bft) SO 0.0 C 0.2 C
27.01.2003 05:00 0.3 C 100 % 1032.0 hPa 0.3 l/m 0.1 km/h (0 Bft) - - 0.3 C 0.3 C
27.01.2003 06:00 0.4 C 100 % 1032.0 hPa 0.9 l/m 0.2 km/h (0 Bft) - - 0.4 C 0.4 C
27.01.2003 07:00 0.6 C 100 % 1032.0 hPa 0.6 l/m 0.5 km/h (0 Bft) S 0.6 C 0.6 C
27.01.2003 08:00 0.9 C 100 % 1032.0 hPa 0.9 l/m 0.4 km/h (0 Bft) - - 0.9 C 0.9 C
27.01.2003 09:00 1.2 C 100 % 1032.0 hPa 0.0 l/m 0.3 km/h (0 Bft) W-SW 1.2 C 1.2 C
27.01.2003 10:00 1.6 C 100 % 1032.0 hPa 0.0 l/m 0.4 km/h (0 Bft) S 1.6 C 1.6 C
27.01.2003 11:00 2.3 C 98 % 1032.0 hPa 0.0 l/m 1.0 km/h (0 Bft) SO 2.0 C 2.3 C
27.01.2003 12:00 3.1 C 92 % 1032.0 hPa 0.0 l/m 4.1 km/h (1 Bft) SO 1.9 C 2.3 C
27.01.2003 13:00 3.6 C 90 % 1031.6 hPa 0.0 l/m 0.6 km/h (0 Bft) S-SW 2.0 C 3.6 C
27.01.2003 14:00 4.0 C 87 % 1031.0 hPa 0.0 l/m 0.4 km/h (0 Bft) S 2.1 C 4.0 C
27.01.2003 15:00 4.5 C 86 % 1031.2 hPa 0.0 l/m 0.1 km/h (0 Bft) - - 2.3 C 4.5 C
27.01.2003 16:00 4.3 C 87 % 1032.0 hPa 0.0 l/m 0.3 km/h (0 Bft) SO 2.4 C 4.3 C
27.01.2003 17:00 4.0 C 92 % 1032.0 hPa 0.0 l/m 1.0 km/h (0 Bft) S-SO 2.8 C 3.9 C
27.01.2003 18:00 3.8 C 96 % 1031.7 hPa 0.0 l/m 1.0 km/h (0 Bft) SO 3.3 C 3.7 C
27.01.2003 19:00 4.0 C 95 % 1031.0 hPa 0.0 l/m 1.6 km/h (1 Bft) SO 3.3 C 3.7 C
27.01.2003 20:00 4.2 C 93 % 1031.0 hPa 0.0 l/m 1.7 km/h (1 Bft) S-SO 3.2 C 4.0 C
27.01.2003 21:00 4.4 C 93 % 1031.0 hPa 0.0 l/m 3.6 km/h (1 Bft) S-SO 3.3 C 3.7 C
27.01.2003 22:00 4.7 C 92 % 1030.3 hPa 0.0 l/m 3.4 km/h (1 Bft) S-SO 3.5 C 4.1 C
27.01.2003 23:00 4.8 C 91 % 1029.9 hPa 0.0 l/m 1.6 km/h (1 Bft) S-SW 3.5 C 4.7 C
28.01.2003 00:00 5.0 C 89 % 1029.2 hPa 0.0 l/m 1.9 km/h (1 Bft) S 3.4 C 4.8 C
28.01.2003 01:00 5.3 C 91 % 1028.5 hPa 0.0 l/m 0.3 km/h (0 Bft) S-SO 3.8 C 5.3 C
28.01.2003 02:00 5.2 C 88 % 1027.7 hPa 0.0 l/m 4.0 km/h (1 Bft) S 3.3 C 4.6 C
28.01.2003 03:00 4.9 C 87 % 1026.4 hPa 0.0 l/m 7.3 km/h (2 Bft) S 3.0 C 3.5 C
28.01.2003 04:00 4.9 C 87 % 1025.1 hPa 0.0 l/m 11.7 km/h (2 Bft) SO 2.9 C 2.5 C
28.01.2003 05:00 5.2 C 85 % 1023.9 hPa 0.0 l/m 15.2 km/h (3 Bft) SO 2.9 C 2.1 C
28.01.2003 06:00 5.3 C 84 % 1022.9 hPa 0.0 l/m 11.2 km/h (2 Bft) S 2.9 C 2.9 C
28.01.2003 07:00 4.8 C 88 % 1022.2 hPa 0.0 l/m 11.9 km/h (2 Bft) S 3.0 C 2.5 C
28.01.2003 08:00 5.3 C 93 % 1021.5 hPa 0.6 l/m 9.2 km/h (2 Bft) S 4.2 C 3.5 C
28.01.2003 09:00 6.5 C 89 % 1020.6 hPa 0.3 l/m 14.5 km/h (3 Bft) W-NW 4.9 C 4.4 C
28.01.2003 10:00 7.5 C 89 % 1020.6 hPa 0.9 l/m 41.4 km/h (6 Bft) W-NW 5.8 C 2.5 C
28.01.2003 11:00 6.3 C 79 % 1021.1 hPa 0.6 l/m 43.9 km/h (6 Bft) W-NW 2.8 C 0.9 C
28.01.2003 12:00 5.6 C 58 % 1021.6 hPa 0.0 l/m 36.7 km/h (5 Bft) W-NW -2.1 C 0.4 C
28.01.2003 13:00 6.1 C 55 % 1021.6 hPa 0.0 l/m 44.0 km/h (6 Bft) W-NW -2.2 C 0.6 C
28.01.2003 14:00 6.2 C 57 % 1021.2 hPa 0.0 l/m 29.3 km/h (5 Bft) W-NW -1.7 C 1.7 C
28.01.2003 15:00 5.9 C 53 % 1020.6 hPa 0.0 l/m 24.2 km/h (4 Bft) W-NW -2.8 C 1.9 C
28.01.2003 16:00 5.6 C 52 % 1020.6 hPa 0.0 l/m 19.1 km/h (3 Bft) W-NW -3.4 C 2.0 C
28.01.2003 17:00 4.4 C 57 % 1020.6 hPa 0.0 l/m 35.5 km/h (5 Bft) W-NW -3.5 C -1.1 C
28.01.2003 18:00 4.1 C 60 % 1019.7 hPa 0.0 l/m 27.9 km/h (4 Bft) W-NW -2.9 C -0.9 C
28.01.2003 19:00 3.8 C 64 % 1018.6 hPa 0.0 l/m 23.2 km/h (4 Bft) W-NW -2.3 C -0.7 C
28.01.2003 20:00 2.5 C 77 % 1017.4 hPa 0.0 l/m 12.2 km/h (2 Bft) S -1.2 C -0.7 C
28.01.2003 21:00 2.6 C 73 % 1016.0 hPa 0.0 l/m 6.8 km/h (2 Bft) SW -1.7 C 0.9 C
28.01.2003 22:00 3.0 C 65 % 1014.2 hPa 0.0 l/m 18.3 km/h (3 Bft) W -2.9 C -1.0 C
28.01.2003 23:00 3.4 C 62 % 1012.5 hPa 0.0 l/m 28.2 km/h (4 Bft) W -3.2 C -1.8 C
29.01.2003 00:00 3.0 C 60 % 1010.9 hPa 0.3 l/m 35.8 km/h (5 Bft) W -4.0 C -3.0 C
29.01.2003 01:00 1.3 C 82 % 1009.4 hPa 0.6 l/m 25.7 km/h (4 Bft) W-SW -1.5 C -4.1 C
29.01.2003 02:00 0.0 C 91 % 1008.6 hPa 1.5 l/m 19.5 km/h (3 Bft) W-NW -1.3 C -4.8 C
29.01.2003 03:00 0.2 C 95 % 1008.1 hPa 1.5 l/m 37.0 km/h (5 Bft) W-NW -0.5 C -6.8 C
29.01.2003 04:00 0.2 C 93 % 1007.7 hPa 0.0 l/m 34.4 km/h (5 Bft) W-NW -0.9 C -6.6 C
29.01.2003 05:00 0.3 C 89 % 1007.4 hPa 0.0 l/m 29.4 km/h (5 Bft) W-NW -1.3 C -5.9 C
29.01.2003 06:00 0.3 C 86 % 1007.1 hPa 0.0 l/m 14.2 km/h (3 Bft) W -1.7 C -3.6 C
29.01.2003 07:00 0.2 C 86 % 1006.3 hPa 0.0 l/m 4.5 km/h (1 Bft) S-SO -1.8 C -0.9 C
29.01.2003 08:00 0.0 C 86 % 1005.8 hPa 0.6 l/m 9.7 km/h (2 Bft) S -2.0 C -2.5 C
29.01.2003 09:00 -0.2 C 90 % 1005.0 hPa 0.6 l/m 7.4 km/h (2 Bft) S-SO -1.6 C -2.5 C
29.01.2003 10:00 0.1 C 93 % 1005.0 hPa 0.6 l/m 7.8 km/h (2 Bft) S-SO -0.9 C -2.4 C
29.01.2003 11:00 -0.2 C 94 % 1005.0 hPa 1.2 l/m 2.2 km/h (1 Bft) S-SO -1.1 C -0.6 C
29.01.2003 12:00 -0.3 C 96 % 1004.0 hPa 1.8 l/m 2.3 km/h (1 Bft) S-SO -0.9 C -0.6 C
29.01.2003 13:00 0.3 C 94 % 1003.5 hPa 0.6 l/m 15.7 km/h (3 Bft) W-NW -0.6 C -2.7 C
29.01.2003 14:00 1.3 C 83 % 1003.0 hPa 0.0 l/m 31.9 km/h (5 Bft) W-NW -1.3 C -4.9 C
29.01.2003 15:00 1.5 C 79 % 1003.4 hPa 0.0 l/m 16.1 km/h (3 Bft) W-NW -1.7 C -2.5 C
29.01.2003 16:00 1.3 C 81 % 1003.2 hPa 0.0 l/m 11.4 km/h (2 Bft) W-NW -1.7 C -1.5 C
29.01.2003 17:00 0.3 C 91 % 1003.4 hPa 0.6 l/m 2.9 km/h (1 Bft) W-NW -1.0 C -0.4 C
29.01.2003 18:00 0.3 C 90 % 1003.0 hPa 0.3 l/m 12.1 km/h (2 Bft) SW -1.1 C -3.1 C
29.01.2003 19:00 -0.2 C 93 % 1003.0 hPa 1.2 l/m 10.2 km/h (2 Bft) W -1.1 C -3.0 C
29.01.2003 20:00 0.1 C 96 % 1002.6 hPa 1.2 l/m 19.0 km/h (3 Bft) W-NW -0.5 C -4.8 C
29.01.2003 21:00 0.6 C 95 % 1002.4 hPa 0.0 l/m 34.1 km/h (5 Bft) W-NW -0.1 C -6.1 C
29.01.2003 22:00 0.6 C 94 % 1003.1 hPa 0.3 l/m 36.4 km/h (5 Bft) W-NW -0.2 C -6.3 C
29.01.2003 23:00 0.4 C 95 % 1004.0 hPa 0.0 l/m 28.6 km/h (4 Bft) NW -0.4 C -5.7 C
30.01.2003 00:00 0.4 C 93 % 1005.0 hPa 0.0 l/m 24.7 km/h (4 Bft) W-NW -0.5 C -5.2 C
30.01.2003 01:00 0.4 C 93 % 1005.0 hPa 0.0 l/m 26.1 km/h (4 Bft) NW -0.6 C -5.5 C
30.01.2003 02:00 0.3 C 92 % 1005.0 hPa 0.0 l/m 24.1 km/h (4 Bft) W-NW -0.7 C -5.3 C
30.01.2003 03:00 -0.2 C 94 % 1005.0 hPa 0.3 l/m 19.0 km/h (3 Bft) W-NW -1.1 C -5.1 C
30.01.2003 04:00 -0.4 C 95 % 1005.0 hPa 0.0 l/m 24.2 km/h (4 Bft) W-NW -1.1 C -6.3 C
30.01.2003 05:00 -0.3 C 94 % 1005.0 hPa 0.0 l/m 14.1 km/h (3 Bft) W-NW -1.1 C -4.2 C
30.01.2003 06:00 -0.5 C 91 % 1004.5 hPa 0.3 l/m 5.5 km/h (1 Bft) W-NW -1.8 C -2.1 C
30.01.2003 07:00 -0.8 C 94 % 1004.0 hPa 0.9 l/m 0.0 km/h (0 Bft) - - -1.7 C -0.8 C
30.01.2003 08:00 -0.4 C 94 % 1004.0 hPa 0.0 l/m 12.4 km/h (3 Bft) W-NW -1.3 C -4.1 C
30.01.2003 09:00 -0.3 C 89 % 1004.0 hPa 0.0 l/m 18.7 km/h (3 Bft) NW -1.9 C -5.3 C
30.01.2003 10:00 0.1 C 82 % 1004.0 hPa 0.0 l/m 18.7 km/h (3 Bft) W-NW -2.6 C -4.8 C
30.01.2003 11:00 0.2 C 78 % 1003.6 hPa 0.0 l/m 25.2 km/h (4 Bft) W-NW -3.2 C -5.6 C
30.01.2003 12:00 0.1 C 81 % 1003.0 hPa 0.0 l/m 23.5 km/h (4 Bft) W-NW -2.8 C -5.6 C
30.01.2003 13:00 -0.4 C 82 % 1002.1 hPa 0.0 l/m 33.6 km/h (5 Bft) W-NW -3.1 C -7.2 C
30.01.2003 14:00 -0.3 C 79 % 1001.2 hPa 0.0 l/m 21.2 km/h (4 Bft) W-NW -3.4 C -5.7 C
30.01.2003 15:00 -0.7 C 79 % 1000.9 hPa 0.0 l/m 25.1 km/h (4 Bft) W-NW -3.9 C -6.6 C
30.01.2003 16:00 -0.7 C 74 % 1000.9 hPa 0.0 l/m 22.6 km/h (4 Bft) W-NW -4.8 C -6.2 C
30.01.2003 17:00 -1.7 C 77 % 1000.9 hPa 0.0 l/m 23.1 km/h (4 Bft) W-NW -5.3 C -7.8 C
30.01.2003 18:00 -1.9 C 81 % 1000.9 hPa 0.0 l/m 6.6 km/h (2 Bft) NW -4.7 C -4.0 C
30.01.2003 19:00 -1.8 C 79 % 1000.9 hPa 0.0 l/m 5.6 km/h (1 Bft) W-NW -5.1 C -3.5 C
30.01.2003 20:00 -2.2 C 79 % 1000.9 hPa 0.0 l/m 1.2 km/h (1 Bft) SO -5.2 C -2.4 C
30.01.2003 21:00 -2.8 C 85 % 1001.2 hPa 0.0 l/m 0.2 km/h (0 Bft) - - -4.9 C -2.8 C
30.01.2003 22:00 -2.7 C 84 % 1001.9 hPa 0.0 l/m 0.0 km/h (0 Bft) S-SO -5.0 C -2.7 C
30.01.2003 23:00 -3.4 C 86 % 1001.9 hPa 0.0 l/m 1.5 km/h (1 Bft) SO -5.4 C -4.0 C
31.01.2003 00:00 -4.0 C 87 % 1002.5 hPa 0.0 l/m 0.5 km/h (0 Bft) O-SO -5.8 C -4.0 C
31.01.2003 01:00 -4.3 C 90 % 1003.0 hPa 0.0 l/m 0.9 km/h (0 Bft) O -5.8 C -4.5 C
31.01.2003 02:00 -4.7 C 91 % 1003.6 hPa 0.0 l/m 4.7 km/h (1 Bft) O-SO -6.0 C -6.4 C
31.01.2003 03:00 -4.5 C 92 % 1004.0 hPa 0.0 l/m 4.2 km/h (1 Bft) O-SO -5.6 C -6.2 C
31.01.2003 04:00 -4.1 C 92 % 1005.0 hPa 0.0 l/m 0.5 km/h (0 Bft) W-NW -5.3 C -4.3 C
31.01.2003 05:00 -3.9 C 90 % 1005.8 hPa 0.0 l/m 0.1 km/h (0 Bft) - - -5.2 C -3.9 C
31.01.2003 06:00 -3.8 C 88 % 1006.4 hPa 0.0 l/m 0.7 km/h (0 Bft) O -5.5 C -3.8 C
31.01.2003 07:00 -4.4 C 90 % 1007.2 hPa 0.0 l/m 0.1 km/h (0 Bft) N -5.7 C -4.4 C
31.01.2003 08:00 -4.8 C 91 % 1008.1 hPa 0.0 l/m 0.0 km/h (0 Bft) - - -6.0 C -4.8 C
31.01.2003 09:00 -4.7 C 87 % 1009.0 hPa 0.0 l/m 0.3 km/h (0 Bft) W-NW -6.5 C -4.8 C
31.01.2003 10:00 -3.4 C 75 % 1010.3 hPa 0.0 l/m 1.0 km/h (0 Bft) O-NO -7.2 C -3.5 C
31.01.2003 11:00 -2.4 C 55 % 1011.3 hPa 0.0 l/m 11.2 km/h (2 Bft) NW -10.2 C -6.0 C
31.01.2003 12:00 -2.7 C 61 % 1012.3 hPa 0.0 l/m 0.9 km/h (0 Bft) NO -9.1 C -2.8 C
31.01.2003 13:00 -3.7 C 73 % 1013.2 hPa 0.3 l/m 0.2 km/h (0 Bft) NW -7.8 C -3.7 C
31.01.2003 14:00 -3.5 C 62 % 1014.1 hPa 0.0 l/m 11.6 km/h (2 Bft) W-NW -9.7 C -7.4 C
31.01.2003 15:00 -4.0 C 56 % 1015.1 hPa 0.0 l/m 21.7 km/h (4 Bft) W-NW -11.5 C -10.6 C
31.01.2003 16:00 -5.2 C 58 % 1016.3 hPa 0.0 l/m 17.4 km/h (3 Bft) W-NW -12.2 C -10.9 C
31.01.2003 17:00 -6.0 C 58 % 1017.7 hPa 0.0 l/m 14.9 km/h (3 Bft) W-NW -13.0 C -11.5 C
31.01.2003 18:00 -6.4 C 63 % 1019.1 hPa 0.0 l/m 11.4 km/h (2 Bft) W-NW -12.4 C -11.2 C
31.01.2003 19:00 -7.6 C 71 % 1020.2 hPa 0.0 l/m 2.4 km/h (1 Bft) W-NW -12.0 C -8.6 C
31.01.2003 20:00 -8.9 C 75 % 1021.1 hPa 0.0 l/m 0.0 km/h (0 Bft) - - -12.4 C -8.9 C
31.01.2003 21:00 -9.8 C 76 % 1021.6 hPa 0.0 l/m 4.6 km/h (1 Bft) SO -13.2 C -12.4 C
31.01.2003 22:00 -10.3 C 79 % 1021.8 hPa 0.0 l/m 7.6 km/h (2 Bft) O-SO -13.1 C -14.4 C
31.01.2003 23:00 -9.7 C 80 % 1022.7 hPa 0.0 l/m 1.1 km/h (1 Bft) O-SO -12.5 C -9.9 C
01.02.2003 00:00 -9.8 C 80 % 1022.7 hPa 0.0 l/m 0.2 km/h (0 Bft) O-SO -12.6 C -9.8 C
01.02.2003 01:00 -10.0 C 80 % 1023.5 hPa 0.0 l/m 0.0 km/h (0 Bft) - - -12.7 C -10.0 C
01.02.2003 02:00 -9.5 C 78 % 1023.7 hPa 0.0 l/m 0.0 km/h (0 Bft) - - -12.5 C -9.5 C
01.02.2003 03:00 -9.3 C 75 % 1024.0 hPa 0.0 l/m 0.4 km/h (0 Bft) W-NW -12.8 C -9.4 C
01.02.2003 04:00 -9.4 C 69 % 1024.8 hPa 0.0 l/m 0.4 km/h (0 Bft) N-NW -14.0 C -9.6 C
01.02.2003 05:00 -10.8 C 74 % 1024.8 hPa 0.0 l/m 0.2 km/h (0 Bft) S -14.6 C -10.8 C
01.02.2003 06:00 -12.4 C 76 % 1024.0 hPa 0.0 l/m 0.1 km/h (0 Bft) S -15.7 C -12.4 C
01.02.2003 07:00 -13.0 C 76 % 1024.5 hPa 0.0 l/m 2.5 km/h (1 Bft) SO -16.2 C -14.3 C
01.02.2003 08:00 -12.7 C 77 % 1024.8 hPa 0.0 l/m 0.5 km/h (0 Bft) O-SO -15.9 C -12.9 C
01.02.2003 09:00 -10.8 C 71 % 1024.8 hPa 0.0 l/m 1.7 km/h (1 Bft) SO -15.0 C -11.4 C
01.02.2003 10:00 -9.3 C 67 % 1024.8 hPa 0.0 l/m 1.2 km/h (1 Bft) SO -14.3 C -9.6 C
01.02.2003 11:00 -7.4 C 62 % 1024.4 hPa 0.0 l/m 3.9 km/h (1 Bft) SO -13.4 C -9.1 C
01.02.2003 12:00 -6.0 C 60 % 1023.7 hPa 0.0 l/m 2.0 km/h (1 Bft) SO -12.4 C -6.8 C
01.02.2003 13:00 -4.8 C 58 % 1022.9 hPa 0.0 l/m 5.7 km/h (1 Bft) SO -11.8 C -6.8 C
01.02.2003 14:00 -4.3 C 63 % 1022.7 hPa 0.0 l/m 7.6 km/h (2 Bft) SO -10.4 C -7.4 C
01.02.2003 15:00 -4.2 C 63 % 1022.7 hPa 0.0 l/m 4.5 km/h (1 Bft) SW -10.2 C -5.7 C
01.02.2003 16:00 -5.8 C 66 % 1021.7 hPa 0.0 l/m 2.0 km/h (1 Bft) SO -11.1 C -6.5 C
01.02.2003 17:00 -6.8 C 71 % 1021.6 hPa 0.0 l/m 5.0 km/h (1 Bft) SO -11.1 C -9.1 C
01.02.2003 18:00 -7.3 C 72 % 1021.6 hPa 0.0 l/m 3.0 km/h (1 Bft) SO -11.5 C -8.4 C
01.02.2003 19:00 -7.0 C 73 % 1021.3 hPa 0.0 l/m 1.1 km/h (1 Bft) SO -11.0 C -7.3 C
01.02.2003 20:00 -6.7 C 71 % 1020.6 hPa 0.0 l/m 3.5 km/h (1 Bft) SO -11.0 C -8.1 C
01.02.2003 21:00 -6.4 C 67 % 1020.6 hPa 0.0 l/m 5.5 km/h (1 Bft) SO -11.6 C -8.7 C
01.02.2003 22:00 -6.6 C 69 % 1019.6 hPa 0.0 l/m 0.9 km/h (0 Bft) SO -11.2 C -6.9 C
01.02.2003 23:00 -6.2 C 63 % 1019.6 hPa 0.0 l/m 0.3 km/h (0 Bft) SO -12.1 C -6.2 C
02.02.2003 00:00 -6.2 C 69 % 1019.6 hPa 0.0 l/m 0.3 km/h (0 Bft) S-SW -11.0 C -6.2 C
02.02.2003 01:00 -6.4 C 78 % 1018.6 hPa 0.0 l/m 0.4 km/h (0 Bft) SO -9.6 C -6.5 C
02.02.2003 02:00 -6.1 C 83 % 1018.5 hPa 0.3 l/m 0.0 km/h (0 Bft) - - -8.6 C -6.1 C
02.02.2003 03:00 -6.3 C 86 % 1018.5 hPa 0.0 l/m 0.0 km/h (0 Bft) - - -8.3 C -6.3 C
02.02.2003 04:00 -6.0 C 88 % 1018.5 hPa 0.3 l/m 0.0 km/h (0 Bft) - - -7.8 C -6.0 C
02.02.2003 05:00 -5.4 C 88 % 1018.5 hPa 0.3 l/m 0.1 km/h (0 Bft) W-SW -7.0 C -5.4 C
02.02.2003 06:00 -4.4 C 88 % 1018.5 hPa 0.0 l/m 0.5 km/h (0 Bft) SW -6.1 C -4.4 C
02.02.2003 07:00 -4.7 C 88 % 1019.3 hPa 0.0 l/m 0.0 km/h (0 Bft) - - -6.4 C -4.7 C
02.02.2003 08:00 -4.0 C 89 % 1019.6 hPa 0.3 l/m 0.2 km/h (0 Bft) SO -5.5 C -4.0 C
02.02.2003 09:00 -2.7 C 82 % 1019.6 hPa 0.0 l/m 0.9 km/h (0 Bft) SO -5.4 C -2.9 C
02.02.2003 10:00 -1.7 C 77 % 1019.6 hPa 0.0 l/m 5.4 km/h (1 Bft) SO -5.3 C -3.6 C
02.02.2003 11:00 -1.1 C 75 % 1019.5 hPa 0.0 l/m 8.1 km/h (2 Bft) SO -5.0 C -3.8 C
02.02.2003 12:00 -0.3 C 73 % 1018.5 hPa 0.0 l/m 6.9 km/h (2 Bft) SO -4.5 C -2.2 C
02.02.2003 13:00 1.1 C 69 % 1018.1 hPa 0.0 l/m 11.8 km/h (2 Bft) S-SO -3.9 C -2.2 C
02.02.2003 14:00 2.2 C 68 % 1016.9 hPa 0.0 l/m 9.4 km/h (2 Bft) SW -3.0 C -0.0 C
02.02.2003 15:00 1.9 C 68 % 1016.4 hPa 0.0 l/m 3.3 km/h (1 Bft) W-NW -3.4 C 1.1 C
02.02.2003 16:00 1.2 C 73 % 1015.7 hPa 0.0 l/m 0.4 km/h (0 Bft) S-SW -3.1 C 1.2 C
02.02.2003 17:00 0.5 C 78 % 1015.4 hPa 0.0 l/m 2.2 km/h (1 Bft) SO -2.8 C -0.1 C
02.02.2003 18:00 0.2 C 80 % 1015.4 hPa 0.0 l/m 1.9 km/h (1 Bft) SO -2.9 C -0.3 C
02.02.2003 19:00 0.2 C 84 % 1014.4 hPa 0.0 l/m 5.5 km/h (1 Bft) SO -2.2 C -1.5 C
02.02.2003 20:00 1.2 C 76 % 1013.5 hPa 0.0 l/m 10.3 km/h (2 Bft) S-SO -2.5 C -1.5 C
02.02.2003 21:00 1.5 C 75 % 1012.6 hPa 0.0 l/m 17.4 km/h (3 Bft) S-SO -2.5 C -2.8 C
02.02.2003 22:00 0.6 C 80 % 1012.3 hPa 0.0 l/m 4.3 km/h (1 Bft) W-NW -2.4 C -0.3 C
02.02.2003 23:00 0.2 C 86 % 1010.8 hPa 0.0 l/m 5.4 km/h (1 Bft) SO -1.8 C -1.4 C
Min-Datum _ 01.02.03 28.01.03 30.01.03 - 27.01.03 - 01.02.03 01.02.03
_ Min-Zeit 08:10 17:27 14:23 - 00:02 - 07:07 07:58
Minimum _ -13.2 C 49 % 1000.9 hPa - 0.0 km/h (0 Bft) - -16.5 C -18.2 C
Max-Datum _ 28.01.03 27.01.03 27.01.03 29.01.03 28.01.03 - 28.01.03 28.01.03
_ Max-Zeit 10:54 04:47 00:17 11:00 11:36 - 10:21 09:06
Maximum _ 7.7 C 100 % 1033.1 hPa 1.8 l/m 69.9 km/h
W-NW (8 Bft)
- 6.0 C 6.3 C
Durchschnitt _ -1.2 C 81 % 1016.2 hPa #22.2 l/m 9.5 km/h (2 Bft) W-NW -4.1 C -3.3 C

Durchschnitt Minimum Temp.-1.6 C
Durchschnitt Maximum Temp.-0.7 C
© Kaiko 2003